Time;durP1;ratioP1;P1;durP2;ratioP2;P2;SDS_P1;SDS_P2;PMS_P1;PMS_P2;Temp;Humidity;BMP_temperature;BMP_pressure;BME280_temperature;BME280_humidity;BME280_pressure;Samples;Min_cycle;Max_cycle;Signal;HPM_P1;HPM_P2
2022/11/02 00:00:28;;;;;;;6.50;1.90;;;15.00;95.80;;;;;;4948205;28;20558;-83
2022/11/02 00:02:55;;;;;;;7.37;1.50;;;15.00;95.70;;;;;;4950034;28;20463;-82
2022/11/02 00:05:23;;;;;;;5.23;1.80;;;14.90;95.70;;;;;;4956426;28;20547;-84
2022/11/02 00:07:52;;;;;;;3.63;1.93;;;14.90;95.70;;;;;;4951829;28;20502;-83
2022/11/02 00:10:20;;;;;;;6.77;2.07;;;15.00;95.70;;;;;;4954612;28;20468;-85
2022/11/02 00:12:48;;;;;;;6.57;2.60;;;14.90;95.80;;;;;;4966494;28;20488;-85
2022/11/02 00:15:16;;;;;;;4.50;1.33;;;14.90;96.00;;;;;;4949847;28;20469;-81
2022/11/02 00:17:47;;;;;;;5.80;1.30;;;14.90;95.90;;;;;;4954186;28;20489;-81
2022/11/02 00:20:19;;;;;;;6.10;2.17;;;14.90;95.80;;;;;;4972602;28;20483;-82
2022/11/02 00:22:49;;;;;;;3.63;1.70;;;14.70;96.30;;;;;;4970095;28;20457;-83
2022/11/02 00:25:19;;;;;;;5.73;1.80;;;14.80;96.30;;;;;;4968840;28;20981;-83
2022/11/02 00:27:46;;;;;;;3.70;1.40;;;14.80;96.20;;;;;;4955060;28;20539;-81
2022/11/02 00:30:18;;;;;;;4.87;2.57;;;15.00;95.90;;;;;;4953081;28;20744;-82
2022/11/02 00:32:45;;;;;;;9.20;3.50;;;15.00;95.80;;;;;;4950285;28;20460;-85
2022/11/02 00:35:12;;;;;;;3.97;1.20;;;14.90;96.00;;;;;;4950557;28;20457;-84
2022/11/02 00:37:39;;;;;;;3.93;2.03;;;14.80;96.10;;;;;;4967329;28;20508;-85
2022/11/02 00:40:06;;;;;;;3.23;1.93;;;14.80;96.30;;;;;;4946515;28;20493;-85
2022/11/02 00:42:33;;;;;;;6.57;1.80;;;14.70;96.20;;;;;;4966113;28;20466;-84
2022/11/02 00:45:00;;;;;;;6.27;1.67;;;14.80;96.30;;;;;;4966057;28;20462;-82
2022/11/02 00:47:27;;;;;;;7.00;1.83;;;14.80;96.30;;;;;;4949989;28;20454;-84
2022/11/02 00:49:54;;;;;;;5.73;1.70;;;14.80;96.30;;;;;;4951995;28;20482;-85
2022/11/02 00:52:22;;;;;;;8.37;2.07;;;14.80;96.20;;;;;;4957333;28;20466;-82
2022/11/02 00:54:50;;;;;;;6.77;1.60;;;14.80;96.40;;;;;;4966619;28;21282;-85
2022/11/02 00:57:17;;;;;;;3.77;1.63;;;14.80;96.40;;;;;;4965397;28;20468;-84
2022/11/02 00:59:49;;;;;;;5.80;1.63;;;14.70;96.50;;;;;;4963936;28;20495;-84
2022/11/02 01:02:18;;;;;;;8.53;2.00;;;14.70;96.70;;;;;;4961593;28;20599;-84
2022/11/02 01:04:45;;;;;;;3.63;1.90;;;14.70;96.50;;;;;;4945468;28;20461;-83
2022/11/02 01:07:12;;;;;;;6.63;1.40;;;14.60;96.90;;;;;;4974482;28;20483;-86
2022/11/02 01:09:38;;;;;;;3.70;1.30;;;14.70;96.70;;;;;;4965717;28;21014;-83
2022/11/02 01:12:07;;;;;;;6.83;2.10;;;14.70;96.80;;;;;;4950647;28;20550;-85
2022/11/02 01:14:33;;;;;;;5.60;1.67;;;14.80;96.50;;;;;;4950266;28;20530;-85
2022/11/02 01:17:03;;;;;;;3.23;1.50;;;14.70;96.60;;;;;;4964094;28;20561;-84
2022/11/02 01:19:33;;;;;;;5.87;1.60;;;14.70;97.00;;;;;;4953999;28;20452;-84
2022/11/02 01:22:02;;;;;;;4.40;1.77;;;14.70;96.70;;;;;;4961619;28;20465;-83
2022/11/02 01:24:29;;;;;;;5.37;2.00;;;14.70;96.50;;;;;;4949938;28;20451;-82
2022/11/02 01:26:59;;;;;;;5.90;1.60;;;14.70;96.60;;;;;;4967355;28;20981;-85
2022/11/02 01:29:26;;;;;;;7.90;1.70;;;14.70;96.80;;;;;;4967781;28;20479;-84
2022/11/02 01:31:53;;;;;;;4.63;1.70;;;14.70;96.50;;;;;;4952488;28;20456;-83
2022/11/02 01:34:20;;;;;;;6.40;2.13;;;14.70;96.70;;;;;;4969547;28;21043;-84
2022/11/02 01:36:55;;;;;;;3.47;1.87;;;14.70;96.80;;;;;;4956406;28;20455;-86
2022/11/02 01:39:24;;;;;;;5.50;1.93;;;14.60;97.00;;;;;;4952214;28;20466;-83
2022/11/02 01:41:56;;;;;;;6.23;2.27;;;14.70;96.70;;;;;;4951128;28;20908;-84
2022/11/02 01:44:31;;;;;;;8.20;2.10;;;14.70;97.20;;;;;;4966569;28;20489;-82
2022/11/02 01:47:21;;;;;;;7.40;1.73;;;14.70;96.80;;;;;;4967978;28;20483;-83
2022/11/02 01:49:52;;;;;;;2.30;1.60;;;14.60;96.80;;;;;;4957551;28;20491;-80
2022/11/02 01:52:30;;;;;;;7.87;1.67;;;14.70;97.00;;;;;;4959426;28;20466;-81
2022/11/02 01:55:15;;;;;;;4.30;1.77;;;14.60;97.10;;;;;;4967890;28;20455;-82
2022/11/02 01:57:46;;;;;;;3.83;1.50;;;14.60;97.10;;;;;;4968987;28;20439;-83
2022/11/02 02:00:17;;;;;;;6.70;1.67;;;14.70;97.20;;;;;;4962716;28;20495;-87
2022/11/02 02:02:56;;;;;;;5.70;2.20;;;14.60;97.20;;;;;;4952307;28;20449;-86
2022/11/02 02:05:24;;;;;;;6.70;1.70;;;14.50;97.40;;;;;;4967103;28;20455;-86
2022/11/02 02:07:52;;;;;;;4.70;1.87;;;14.30;97.80;;;;;;4905409;29;1108267;-86
2022/11/02 02:10:18;;;;;;;8.10;1.77;;;14.40;98.00;;;;;;4961678;28;20518;-85
2022/11/02 02:12:54;;;;;;;4.33;1.73;;;14.40;97.90;;;;;;4968700;28;21299;-85
2022/11/02 02:15:26;;;;;;;3.47;1.50;;;14.50;97.90;;;;;;4955744;28;20465;-83
2022/11/02 02:18:06;;;;;;;3.70;1.80;;;14.50;97.90;;;;;;4968476;28;20540;-84
2022/11/02 02:20:47;;;;;;;10.30;1.70;;;14.60;97.80;;;;;;4957727;28;20478;-81
2022/11/02 02:23:39;;;;;;;5.20;1.60;;;14.50;97.80;;;;;;4967857;28;21305;-81
2022/11/02 02:26:18;;;;;;;6.20;2.37;;;14.30;98.30;;;;;;4982889;28;20472;-81
2022/11/02 02:28:51;;;;;;;5.23;1.60;;;14.40;98.30;;;;;;4982224;28;20467;-82
2022/11/02 02:31:32;;;;;;;4.23;1.40;;;14.50;98.40;;;;;;4983345;28;20520;-82
2022/11/02 02:34:43;;;;;;;7.17;2.07;;;14.40;98.30;;;;;;4962215;28;20464;-82
2022/11/02 02:37:22;;;;;;;2.93;1.20;;;14.30;98.60;;;;;;4917270;29;20464;-82
2022/11/02 02:40:06;;;;;;;5.30;2.00;;;14.30;98.80;;;;;;4903511;29;20462;-82
2022/11/02 02:42:40;;;;;;;3.87;1.60;;;14.30;98.80;;;;;;4948381;28;20479;-84
2022/11/02 02:45:28;;;;;;;7.80;1.80;;;14.30;98.90;;;;;;4946399;28;20480;-83
2022/11/02 02:48:11;;;;;;;5.50;2.00;;;14.40;98.80;;;;;;4964617;28;20502;-83
2022/11/02 02:50:49;;;;;;;5.20;1.87;;;14.30;98.80;;;;;;4946756;28;20509;-85
2022/11/02 02:53:27;;;;;;;2.60;1.17;;;14.30;98.80;;;;;;4963603;28;20471;-83
2022/11/02 02:55:57;;;;;;;2.63;1.60;;;14.40;98.90;;;;;;4964008;28;20559;-83
2022/11/02 02:58:28;;;;;;;6.43;4.10;;;14.30;99.10;;;;;;4950833;28;20466;-83
2022/11/02 03:00:58;;;;;;;10.23;2.57;;;14.40;99.00;;;;;;4948589;28;20718;-81
2022/11/02 03:03:27;;;;;;;4.63;1.80;;;14.20;98.90;;;;;;4959385;28;20492;-81
2022/11/02 03:06:03;;;;;;;8.10;1.90;;;14.30;99.20;;;;;;4968206;28;20459;-85
2022/11/02 03:08:31;;;;;;;8.07;1.80;;;14.30;99.10;;;;;;4948175;28;21384;-83
2022/11/02 03:11:18;;;;;;;5.77;1.93;;;14.40;99.10;;;;;;4965072;28;20516;-83
2022/11/02 03:14:08;;;;;;;3.83;1.67;;;14.30;99.10;;;;;;4966548;28;20459;-83
2022/11/02 03:16:54;;;;;;;6.40;1.47;;;14.40;99.00;;;;;;4952571;28;20495;-83
2022/11/02 03:19:35;;;;;;;3.33;1.90;;;14.40;99.10;;;;;;4967646;28;20451;-86
2022/11/02 03:22:08;;;;;;;4.03;1.20;;;14.50;98.90;;;;;;4969067;28;20508;-84
2022/11/02 03:24:44;;;;;;;3.77;1.70;;;14.40;99.00;;;;;;4968898;28;20443;-82
2022/11/02 03:27:32;;;;;;;4.40;2.17;;;14.40;99.00;;;;;;4967513;28;20477;-84
2022/11/02 03:30:17;;;;;;;5.13;1.97;;;14.30;99.20;;;;;;4951482;28;20482;-83
2022/11/02 03:32:54;;;;;;;3.23;1.63;;;14.40;98.90;;;;;;4968012;28;20427;-84
2022/11/02 03:36:00;;;;;;;6.13;1.80;;;14.50;98.70;;;;;;4969224;28;20446;-82
2022/11/02 03:38:48;;;;;;;5.47;2.30;;;14.70;98.50;;;;;;4923255;28;20457;-85
2022/11/02 03:41:17;;;;;;;4.17;1.60;;;14.60;98.50;;;;;;4951258;28;20504;-83
2022/11/02 03:43:48;;;;;;;6.33;2.23;;;14.70;98.30;;;;;;4948560;28;20485;-85
2022/11/02 03:46:17;;;;;;;5.07;1.57;;;14.70;98.30;;;;;;4952329;28;20467;-81
2022/11/02 03:48:47;;;;;;;4.67;2.20;;;14.60;98.70;;;;;;4948963;28;20525;-85
2022/11/02 03:51:18;;;;;;;7.00;1.70;;;14.50;98.60;;;;;;4969571;28;20467;-85
2022/11/02 03:54:06;;;;;;;6.00;1.93;;;14.50;98.70;;;;;;4968168;28;20459;-85
2022/11/02 03:56:38;;;;;;;5.30;1.80;;;14.40;98.90;;;;;;4969979;28;20455;-83
2022/11/02 03:59:05;;;;;;;6.43;1.87;;;14.50;98.90;;;;;;4969349;28;20460;-81
2022/11/02 04:01:43;;;;;;;5.13;1.80;;;14.40;98.60;;;;;;4969380;28;20545;-84
2022/11/02 04:04:12;;;;;;;6.23;2.30;;;14.50;98.50;;;;;;4962664;28;20443;-82
2022/11/02 04:06:41;;;;;;;4.60;1.70;;;14.50;98.40;;;;;;4968774;28;20473;-82
2022/11/02 04:09:12;;;;;;;4.30;1.70;;;14.50;98.50;;;;;;4969824;28;20485;-80
2022/11/02 04:14:37;;;;;;;3.27;1.80;;;14.40;98.50;;;;;;4984791;28;20436;-82
2022/11/02 04:19:55;;;;;;;5.23;1.67;;;14.40;98.40;;;;;;4981944;28;20468;-82
2022/11/02 04:25:17;;;;;;;4.13;1.77;;;14.30;98.30;;;;;;4970928;28;20459;-84
2022/11/02 04:27:51;;;;;;;4.13;1.83;;;14.40;98.40;;;;;;4952731;28;20457;-83
2022/11/02 04:30:20;;;;;;;8.93;2.43;;;14.30;98.20;;;;;;4969020;28;20485;-82
2022/11/02 04:35:36;;;;;;;4.17;1.77;;;14.30;98.40;;;;;;4974794;28;20470;-85
2022/11/02 04:41:40;;;;;;;8.63;1.93;;;14.40;97.80;;;;;;4973241;28;20494;-86
2022/11/02 04:43:39;;;;;;;5.03;2.47;;;14.30;97.70;;;;;;4975317;28;20464;-82
2022/11/02 04:46:05;;;;;;;10.53;2.43;;;14.20;97.70;;;;;;4966354;28;20476;-82
2022/11/02 04:48:33;;;;;;;5.80;1.87;;;14.30;97.40;;;;;;4953872;28;20532;-83
2022/11/02 04:51:00;;;;;;;6.23;1.70;;;14.30;97.10;;;;;;4959183;28;20482;-84
2022/11/02 04:53:27;;;;;;;3.47;1.53;;;14.30;96.90;;;;;;4985541;28;20430;-82
2022/11/02 04:55:57;;;;;;;6.07;1.60;;;14.40;96.50;;;;;;4973257;28;20476;-80
2022/11/02 04:58:24;;;;;;;5.87;1.37;;;14.20;96.30;;;;;;4978001;28;20475;-83
2022/11/02 05:00:51;;;;;;;1.87;1.30;;;14.30;96.10;;;;;;4955214;28;20499;-86
2022/11/02 05:03:20;;;;;;;2.90;1.40;;;14.40;95.70;;;;;;4972802;28;20451;-82
2022/11/02 05:05:52;;;;;;;10.20;2.17;;;14.50;95.30;;;;;;4973012;28;20459;-85
2022/11/02 05:08:22;;;;;;;3.47;1.40;;;14.40;95.10;;;;;;4956723;28;20489;-82
2022/11/02 05:10:56;;;;;;;4.73;1.23;;;14.30;95.40;;;;;;4956894;28;20474;-81
2022/11/02 05:13:24;;;;;;;4.10;1.17;;;14.40;95.10;;;;;;4968594;28;20451;-82
2022/11/02 05:15:56;;;;;;;4.50;1.50;;;14.40;95.20;;;;;;4976268;28;20961;-84
2022/11/02 05:18:26;;;;;;;3.87;1.63;;;14.40;95.00;;;;;;4956145;28;20475;-85
2022/11/02 05:20:59;;;;;;;2.00;1.60;;;14.40;95.20;;;;;;4959518;28;20499;-82
2022/11/02 05:23:28;;;;;;;4.83;1.50;;;14.40;95.30;;;;;;4973131;28;20459;-85
2022/11/02 05:26:03;;;;;;;3.80;1.83;;;14.30;95.30;;;;;;4955253;28;20482;-82
2022/11/02 05:28:31;;;;;;;6.13;1.27;;;14.20;95.50;;;;;;4955461;28;20473;-82
2022/11/02 05:31:02;;;;;;;3.70;1.57;;;14.40;95.30;;;;;;4955189;28;20475;-82
2022/11/02 05:33:30;;;;;;;6.40;2.80;;;14.50;94.90;;;;;;4965167;28;20467;-83
2022/11/02 05:35:58;;;;;;;4.80;1.50;;;14.40;95.10;;;;;;4961137;28;20814;-85
2022/11/02 05:38:26;;;;;;;7.37;1.70;;;14.50;95.10;;;;;;4943638;28;20461;-86
2022/11/02 05:40:55;;;;;;;11.70;2.50;;;14.50;94.90;;;;;;4962989;28;20499;-85
2022/11/02 05:43:22;;;;;;;5.93;1.73;;;14.30;95.20;;;;;;4963812;28;21004;-83
2022/11/02 05:45:54;;;;;;;2.90;1.23;;;14.30;95.60;;;;;;4946364;28;20514;-84
2022/11/02 05:48:22;;;;;;;5.63;1.77;;;14.40;95.20;;;;;;4944931;28;21041;-84
2022/11/02 05:50:57;;;;;;;5.83;1.60;;;14.50;94.90;;;;;;4961032;28;20929;-85
2022/11/02 05:53:25;;;;;;;6.73;2.10;;;14.40;94.90;;;;;;4960392;28;20548;-86
2022/11/02 05:55:57;;;;;;;7.13;2.17;;;14.40;95.40;;;;;;4964182;28;20539;-83
2022/11/02 05:58:24;;;;;;;5.33;2.20;;;14.50;95.10;;;;;;4964403;28;20445;-82
2022/11/02 06:00:51;;;;;;;4.87;1.83;;;14.50;95.00;;;;;;4964579;28;20550;-82
2022/11/02 06:03:19;;;;;;;4.93;2.30;;;14.10;95.30;;;;;;4945821;28;20534;-84
2022/11/02 06:08:38;;;;;;;4.13;1.47;;;14.10;96.10;;;;;;5039376;23;20924;-82
2022/11/02 06:11:10;;;;;;;6.30;2.70;;;14.30;95.60;;;;;;4962255;28;20475;-84
2022/11/02 06:13:38;;;;;;;9.43;2.10;;;14.40;95.20;;;;;;4949037;28;21344;-84
2022/11/02 06:16:09;;;;;;;6.67;1.90;;;14.50;94.90;;;;;;4964778;28;20455;-84
2022/11/02 06:18:37;;;;;;;4.17;1.47;;;14.60;94.80;;;;;;4967515;28;20472;-85
2022/11/02 06:21:06;;;;;;;4.43;1.93;;;14.60;94.80;;;;;;4964722;28;20490;-84
2022/11/02 06:23:34;;;;;;;6.10;1.90;;;14.40;95.30;;;;;;4948521;28;21075;-83
2022/11/02 06:26:02;;;;;;;6.67;2.97;;;14.50;94.80;;;;;;4962827;28;20939;-85
2022/11/02 06:28:30;;;;;;;4.70;1.70;;;14.20;95.10;;;;;;4962895;28;20460;-82
2022/11/02 06:31:00;;;;;;;4.00;1.50;;;14.30;95.60;;;;;;4964235;28;20483;-84
2022/11/02 06:33:28;;;;;;;6.97;2.17;;;14.60;95.10;;;;;;4960819;28;20463;-84
2022/11/02 06:35:55;;;;;;;4.60;1.50;;;14.40;94.80;;;;;;4946053;28;20503;-84
2022/11/02 06:38:23;;;;;;;9.50;1.90;;;14.50;95.10;;;;;;4960533;28;20969;-85
2022/11/02 06:40:53;;;;;;;4.93;1.70;;;14.50;95.10;;;;;;4962381;28;20479;-85
2022/11/02 06:43:24;;;;;;;6.57;1.60;;;14.50;95.10;;;;;;4968280;28;20864;-83
2022/11/02 06:46:01;;;;;;;2.20;1.30;;;14.40;94.90;;;;;;4955992;28;20462;-82
2022/11/02 06:48:28;;;;;;;5.40;1.67;;;14.40;95.20;;;;;;4964401;28;20513;-83
2022/11/02 06:51:00;;;;;;;8.00;1.87;;;14.10;95.60;;;;;;4964087;28;20480;-85
2022/11/02 06:53:28;;;;;;;5.50;2.20;;;14.20;95.50;;;;;;4951281;28;20564;-84
2022/11/02 06:55:57;;;;;;;4.60;1.17;;;14.30;95.40;;;;;;4963076;28;20468;-84
2022/11/02 06:58:25;;;;;;;8.63;1.90;;;14.40;95.30;;;;;;4964703;28;20455;-86
2022/11/02 07:01:03;;;;;;;8.80;1.93;;;14.40;95.00;;;;;;4962263;28;20518;-86
2022/11/02 07:03:30;;;;;;;4.50;1.47;;;14.50;94.90;;;;;;4946826;28;20438;-84
2022/11/02 07:05:58;;;;;;;3.40;1.40;;;14.50;94.80;;;;;;4947591;28;20505;-82
2022/11/02 07:08:26;;;;;;;4.93;1.40;;;14.50;94.70;;;;;;4946549;28;20598;-84
2022/11/02 07:10:53;;;;;;;9.30;1.70;;;14.40;94.90;;;;;;4960791;28;20538;-83
2022/11/02 07:13:21;;;;;;;3.73;1.53;;;14.40;95.10;;;;;;4948764;28;20467;-82
2022/11/02 07:15:53;;;;;;;4.37;1.83;;;14.20;95.40;;;;;;4950712;28;20445;-85
2022/11/02 07:18:22;;;;;;;2.13;1.17;;;14.30;95.50;;;;;;4964312;28;20540;-84
2022/11/02 07:20:49;;;;;;;8.93;2.10;;;14.70;94.80;;;;;;4964358;28;20533;-83
2022/11/02 07:23:16;;;;;;;4.17;1.67;;;14.90;94.50;;;;;;4962979;28;22400;-83
2022/11/02 07:25:46;;;;;;;6.40;1.57;;;14.90;94.10;;;;;;4964958;28;21040;-83
2022/11/02 07:28:13;;;;;;;4.00;1.40;;;14.80;94.40;;;;;;4965340;28;20452;-82
2022/11/02 07:30:43;;;;;;;10.83;2.17;;;14.60;94.50;;;;;;4968456;28;20463;-82
2022/11/02 07:33:11;;;;;;;8.93;1.63;;;14.60;94.80;;;;;;4955258;28;20462;-85
2022/11/02 07:35:41;;;;;;;6.30;2.07;;;14.50;95.00;;;;;;4949618;28;20832;-82
2022/11/02 07:38:11;;;;;;;7.40;1.83;;;14.50;95.20;;;;;;4949771;28;20479;-84
2022/11/02 07:40:38;;;;;;;4.87;1.87;;;14.50;95.00;;;;;;4949859;28;20602;-84
2022/11/02 07:43:07;;;;;;;6.53;2.17;;;14.30;95.30;;;;;;4964495;28;21059;-83
2022/11/02 07:45:36;;;;;;;5.37;1.60;;;14.30;95.60;;;;;;4966618;28;20467;-86
2022/11/02 07:48:03;;;;;;;11.53;2.50;;;14.20;95.80;;;;;;4962776;28;20451;-83
2022/11/02 07:50:35;;;;;;;2.60;1.47;;;14.30;95.90;;;;;;4969814;28;20565;-83
2022/11/02 07:53:08;;;;;;;6.20;1.50;;;14.50;95.70;;;;;;4954738;28;20462;-83
2022/11/02 07:55:38;;;;;;;4.23;1.50;;;14.90;94.80;;;;;;4958170;28;20523;-84
2022/11/02 07:58:09;;;;;;;5.87;2.40;;;14.50;95.00;;;;;;4967374;28;20486;-82
2022/11/02 08:00:38;;;;;;;6.50;2.10;;;14.40;95.60;;;;;;4979819;28;20721;-83
2022/11/02 08:03:06;;;;;;;4.07;1.47;;;14.70;95.40;;;;;;4973752;28;20478;-82
2022/11/02 08:05:39;;;;;;;4.37;1.73;;;14.90;95.10;;;;;;4986923;28;20458;-82
2022/11/02 08:08:10;;;;;;;7.13;2.50;;;14.80;94.70;;;;;;4955372;28;20453;-84
2022/11/02 08:10:42;;;;;;;5.20;2.20;;;14.60;95.10;;;;;;4948187;28;20467;-85
2022/11/02 08:13:48;;;;;;;3.47;1.20;;;14.60;95.40;;;;;;4969037;28;20485;-83
2022/11/02 08:21:26;;;;;;;6.43;1.57;;;14.70;94.90;;;;;;4801425;29;20480;-85
2022/11/02 08:24:09;;;;;;;9.03;2.10;;;14.60;95.50;;;;;;4774774;29;20457;-80
2022/11/02 08:26:49;;;;;;;6.23;1.70;;;14.60;95.60;;;;;;4900206;28;20455;-85
2022/11/02 08:29:17;;;;;;;10.47;2.13;;;14.70;95.60;;;;;;4968684;28;20447;-83
2022/11/02 08:31:44;;;;;;;6.73;2.20;;;14.80;95.60;;;;;;4985131;28;20503;-81
2022/11/02 08:34:11;;;;;;;4.10;1.47;;;15.00;95.00;;;;;;4969857;28;20455;-80
2022/11/02 08:36:42;;;;;;;2.07;1.50;;;14.80;94.90;;;;;;4984297;28;20462;-81
2022/11/02 08:39:09;;;;;;;8.13;2.00;;;14.80;95.20;;;;;;4984504;28;20435;-80
2022/11/02 08:41:40;;;;;;;10.13;2.10;;;14.80;94.80;;;;;;4961685;28;20581;-85
2022/11/02 08:44:06;;;;;;;6.23;1.70;;;14.80;95.10;;;;;;4972808;28;20438;-84
2022/11/02 08:46:33;;;;;;;5.07;1.33;;;14.80;95.30;;;;;;4965365;28;20454;-83
2022/11/02 08:49:00;;;;;;;8.53;1.93;;;14.90;95.00;;;;;;4948448;28;20455;-85
2022/11/02 08:51:47;;;;;;;5.67;2.60;;;14.80;95.00;;;;;;4952232;28;20558;-82
2022/11/02 08:54:14;;;;;;;8.00;1.83;;;14.80;95.10;;;;;;4966240;28;20455;-83
2022/11/02 08:56:41;;;;;;;4.73;1.93;;;14.80;95.00;;;;;;4964167;28;20464;-83
2022/11/02 08:59:08;;;;;;;3.50;1.80;;;14.80;95.00;;;;;;4964824;28;20514;-82
2022/11/02 09:01:35;;;;;;;9.37;1.93;;;14.90;95.10;;;;;;4949003;28;20487;-82
2022/11/02 09:04:07;;;;;;;3.70;2.30;;;15.00;94.70;;;;;;4949490;28;21198;-83
2022/11/02 09:06:44;;;;;;;6.13;2.57;;;15.10;94.70;;;;;;4948801;28;20594;-84
2022/11/02 09:09:13;;;;;;;9.83;1.80;;;15.30;94.10;;;;;;4952836;28;20550;-85
2022/11/02 09:11:40;;;;;;;5.87;1.77;;;15.10;94.10;;;;;;4963113;28;20855;-83
2022/11/02 09:14:07;;;;;;;5.87;1.40;;;14.90;94.30;;;;;;4961234;28;20463;-83
2022/11/02 09:16:34;;;;;;;7.27;2.77;;;14.90;94.40;;;;;;4962399;28;20463;-83
2022/11/02 09:19:06;;;;;;;3.40;1.60;;;14.80;94.10;;;;;;4962038;28;20459;-81
2022/11/02 09:21:36;;;;;;;9.37;2.00;;;14.80;94.10;;;;;;4949232;28;20491;-85
2022/11/02 09:24:03;;;;;;;5.97;1.57;;;14.90;94.20;;;;;;4947542;28;20459;-83
2022/11/02 09:26:29;;;;;;;4.63;1.63;;;15.00;94.10;;;;;;4962355;28;20461;-84
2022/11/02 09:28:56;;;;;;;2.73;1.30;;;15.00;94.00;;;;;;4960763;28;21848;-85
2022/11/02 09:31:23;;;;;;;4.57;1.93;;;15.40;93.20;;;;;;4965627;28;20487;-83
2022/11/02 09:33:50;;;;;;;6.87;3.40;;;16.30;91.40;;;;;;4960288;28;20453;-84
2022/11/02 09:36:17;;;;;;;4.80;1.47;;;17.00;89.80;;;;;;4961019;28;20498;-83
2022/11/02 09:38:44;;;;;;;4.20;1.63;;;18.10;86.50;;;;;;4962124;28;20468;-86
2022/11/02 09:42:02;;;;;;;4.70;1.83;;;19.50;80.30;;;;;;4946809;28;20491;-85
2022/11/02 09:44:44;;;;;;;8.00;1.60;;;20.30;75.80;;;;;;4961293;28;20454;-81
2022/11/02 09:47:12;;;;;;;6.80;2.07;;;20.60;72.40;;;;;;4962767;28;20448;-84
2022/11/02 09:50:02;;;;;;;6.60;1.73;;;20.50;71.30;;;;;;4968394;28;20486;-86
2022/11/02 09:52:35;;;;;;;8.60;1.70;;;20.40;70.20;;;;;;4967633;28;20460;-84
2022/11/02 09:55:27;;;;;;;6.47;2.23;;;20.30;69.20;;;;;;4966855;28;20523;-83
2022/11/02 09:58:08;;;;;;;3.90;1.23;;;19.70;69.40;;;;;;4965374;28;20455;-81
2022/11/02 10:01:01;;;;;;;6.20;2.70;;;18.70;71.60;;;;;;4975248;28;20725;-82
2022/11/02 10:04:16;;;;;;;5.33;2.83;;;17.80;74.90;;;;;;4971368;28;20933;-82
2022/11/02 10:07:05;;;;;;;6.37;2.10;;;17.30;77.60;;;;;;4967012;28;20474;-83
2022/11/02 10:10:07;;;;;;;5.00;1.67;;;17.00;79.90;;;;;;4957059;28;20543;-83
2022/11/02 10:13:17;;;;;;;10.33;3.10;;;16.90;81.00;;;;;;4958348;28;21142;-82
2022/11/02 10:15:56;;;;;;;6.33;1.67;;;16.80;81.60;;;;;;4966228;28;20558;-82
2022/11/02 10:18:29;;;;;;;9.00;2.60;;;16.80;82.00;;;;;;4960910;28;20463;-82
2022/11/02 10:21:04;;;;;;;3.63;1.47;;;16.80;81.20;;;;;;4970046;28;20518;-85
2022/11/02 10:23:35;;;;;;;8.33;2.43;;;16.90;80.90;;;;;;4962350;28;20483;-83
2022/11/02 10:26:02;;;;;;;4.50;1.57;;;16.70;81.40;;;;;;4970607;28;20431;-82
2022/11/02 10:28:34;;;;;;;5.40;1.67;;;16.70;80.80;;;;;;4967203;28;20435;-82
2022/11/02 10:31:04;;;;;;;6.97;6.13;;;16.60;81.10;;;;;;4969072;28;20491;-84
2022/11/02 10:33:31;;;;;;;4.27;1.90;;;16.50;81.70;;;;;;4968717;28;20456;-84
2022/11/02 10:36:33;;;;;;;7.20;1.70;;;16.40;81.90;;;;;;4975782;28;20470;-83
2022/11/02 10:39:16;;;;;;;4.40;1.60;;;16.40;82.40;;;;;;4967397;28;20461;-83
2022/11/02 10:41:55;;;;;;;5.33;1.30;;;16.40;82.90;;;;;;4968897;28;20939;-84
2022/11/02 10:45:05;;;;;;;5.60;1.20;;;16.50;82.30;;;;;;4970509;28;20466;-85
2022/11/02 10:48:12;;;;;;;4.80;1.93;;;16.40;80.30;;;;;;4969636;28;20606;-83
2022/11/02 10:50:58;;;;;;;3.40;1.60;;;16.50;79.50;;;;;;4978338;28;20494;-83
2022/11/02 10:53:34;;;;;;;4.47;1.40;;;16.30;80.50;;;;;;4970452;28;20442;-81
2022/11/02 10:56:10;;;;;;;6.30;1.90;;;16.20;81.50;;;;;;4986428;28;20439;-82
2022/11/02 10:58:40;;;;;;;6.70;2.20;;;16.20;81.10;;;;;;4968821;28;20462;-81
2022/11/02 11:01:10;;;;;;;5.13;2.00;;;16.30;81.20;;;;;;4963333;28;20592;-82
2022/11/02 11:04:29;;;;;;;5.70;2.43;;;16.40;80.90;;;;;;4976987;28;20486;-84
2022/11/02 11:07:02;;;;;;;5.90;1.70;;;16.40;80.30;;;;;;4947645;28;20462;-84
2022/11/02 11:09:50;;;;;;;5.17;1.30;;;16.80;77.00;;;;;;4949717;28;20469;-81
2022/11/02 11:12:22;;;;;;;4.70;1.47;;;16.90;77.20;;;;;;4949029;28;20459;-83
2022/11/02 11:14:55;;;;;;;4.07;1.40;;;16.80;76.90;;;;;;4971882;28;20468;-84
2022/11/02 11:17:42;;;;;;;5.17;1.60;;;17.00;76.10;;;;;;4954497;28;20953;-83
2022/11/02 11:20:34;;;;;;;3.60;1.20;;;17.20;75.80;;;;;;4968637;28;20543;-81
2022/11/02 11:23:14;;;;;;;2.60;1.33;;;17.20;75.40;;;;;;4949880;28;20487;-84
2022/11/02 11:25:41;;;;;;;8.30;1.87;;;17.30;74.00;;;;;;4948173;28;20489;-81
2022/11/02 11:28:22;;;;;;;6.43;1.60;;;17.10;74.80;;;;;;4966498;28;20483;-84
2022/11/02 11:31:04;;;;;;;16.17;6.50;;;17.20;75.10;;;;;;4964133;28;20475;-82
2022/11/02 11:33:39;;;;;;;4.00;1.50;;;16.80;75.40;;;;;;4962767;28;20467;-83
2022/11/02 11:36:08;;;;;;;7.13;1.40;;;16.70;76.30;;;;;;4963578;28;20445;-82
2022/11/02 11:38:36;;;;;;;4.43;1.67;;;16.60;77.60;;;;;;4963735;28;20451;-84
2022/11/02 11:41:10;;;;;;;2.67;2.07;;;16.40;79.00;;;;;;4964287;28;20581;-84
2022/11/02 11:43:39;;;;;;;6.73;1.80;;;16.40;79.80;;;;;;4948629;28;20543;-82
2022/11/02 11:46:07;;;;;;;9.80;3.20;;;16.70;78.60;;;;;;4952684;28;20467;-82
2022/11/02 11:48:40;;;;;;;6.10;1.97;;;16.60;79.70;;;;;;4951070;28;20514;-83
2022/11/02 11:51:31;;;;;;;2.73;1.27;;;16.40;80.30;;;;;;4946779;28;20529;-81
2022/11/02 11:54:20;;;;;;;3.03;1.40;;;16.50;80.90;;;;;;4953108;28;20450;-82
2022/11/02 11:56:48;;;;;;;3.57;1.27;;;16.90;79.90;;;;;;4961730;28;20477;-83
2022/11/02 11:59:45;;;;;;;7.33;2.03;;;17.40;75.70;;;;;;4964131;28;20467;-83
2022/11/02 12:02:25;;;;;;;6.00;1.90;;;17.10;76.70;;;;;;4952293;28;20502;-82
2022/11/02 12:05:14;;;;;;;4.30;1.33;;;16.90;77.70;;;;;;4961051;28;20514;-82
2022/11/02 12:07:44;;;;;;;5.63;1.40;;;16.80;78.50;;;;;;4961597;28;20439;-83
2022/11/02 12:10:32;;;;;;;4.67;1.40;;;16.70;77.70;;;;;;4963327;28;20513;-84
2022/11/02 12:13:11;;;;;;;4.87;1.60;;;16.70;77.70;;;;;;4961527;28;20518;-85
2022/11/02 12:16:00;;;;;;;5.63;1.63;;;16.60;78.20;;;;;;4946928;28;22258;-84
2022/11/02 12:18:51;;;;;;;9.20;1.83;;;16.60;78.10;;;;;;4960584;28;20593;-83
2022/11/02 12:21:32;;;;;;;5.60;1.53;;;16.50;78.80;;;;;;4962924;28;20482;-83
2022/11/02 12:24:32;;;;;;;3.23;1.40;;;16.50;78.90;;;;;;4969806;28;20492;-85
2022/11/02 12:27:37;;;;;;;3.87;2.20;;;16.60;78.80;;;;;;4969084;28;20585;-85
2022/11/02 12:32:56;;;;;;;3.20;1.30;;;17.00;76.20;;;;;;5141284;23;20505;-83
2022/11/02 12:35:39;;;;;;;2.77;1.23;;;16.90;75.80;;;;;;4967051;28;20482;-82
2022/11/02 12:38:38;;;;;;;3.67;1.57;;;16.80;73.60;;;;;;4976179;28;20461;-82
2022/11/02 12:41:53;;;;;;;5.63;1.70;;;17.10;72.80;;;;;;4960636;28;20475;-84
2022/11/02 12:44:41;;;;;;;4.13;1.10;;;17.00;74.30;;;;;;4963803;28;20487;-86
2022/11/02 12:47:33;;;;;;;3.50;1.30;;;17.30;72.20;;;;;;4975805;28;20459;-82
2022/11/02 12:50:32;;;;;;;3.50;1.10;;;17.00;72.40;;;;;;4965442;28;20493;-81
2022/11/02 12:53:18;;;;;;;5.67;1.63;;;16.90;72.70;;;;;;4932175;28;21453;-82
2022/11/02 12:55:51;;;;;;;5.20;1.60;;;16.90;72.80;;;;;;4980329;28;20486;-83
2022/11/02 12:58:31;;;;;;;3.33;1.27;;;17.10;72.80;;;;;;4981357;28;20468;-81
2022/11/02 13:01:22;;;;;;;3.37;1.47;;;17.10;70.90;;;;;;4967584;28;20578;-83
2022/11/02 13:03:59;;;;;;;6.83;1.80;;;17.10;70.70;;;;;;4975909;28;20492;-85
2022/11/02 13:06:48;;;;;;;4.50;1.33;;;17.60;68.50;;;;;;4952527;28;20466;-83
2022/11/02 13:10:13;;;;;;;4.57;1.60;;;17.20;69.10;;;;;;4966623;28;21769;-85
2022/11/02 13:16:15;;;;;;;4.53;1.57;;;17.20;70.50;;;;;;4964058;28;20464;-84
2022/11/02 13:18:52;;;;;;;3.20;1.10;;;17.10;70.20;;;;;;4968113;28;20531;-83
2022/11/02 13:21:53;;;;;;;4.40;1.53;;;17.00;70.00;;;;;;4967943;28;20470;-84
2022/11/02 13:24:53;;;;;;;4.47;1.77;;;17.00;69.90;;;;;;4968316;28;20561;-84
2022/11/02 13:27:41;;;;;;;5.23;1.63;;;17.00;70.70;;;;;;4952703;28;21307;-83
2022/11/02 13:30:17;;;;;;;4.13;1.27;;;17.00;70.60;;;;;;4958874;28;20549;-84
2022/11/02 13:33:12;;;;;;;5.20;1.63;;;17.00;71.00;;;;;;4953762;28;20541;-83
2022/11/02 13:35:42;;;;;;;5.27;1.53;;;17.00;71.60;;;;;;4950014;28;20479;-86
2022/11/02 13:38:19;;;;;;;5.93;2.33;;;17.20;71.50;;;;;;4956346;28;20491;-82
2022/11/02 13:41:08;;;;;;;9.97;1.67;;;17.30;70.00;;;;;;4974306;28;20478;-82
2022/11/02 13:43:57;;;;;;;4.53;1.47;;;17.30;69.60;;;;;;4973173;28;20554;-84
2022/11/02 13:46:54;;;;;;;1.67;1.00;;;17.60;67.80;;;;;;4951226;28;20461;-83
2022/11/02 13:49:29;;;;;;;3.80;1.37;;;17.90;65.70;;;;;;4962244;28;20477;-85
2022/11/02 13:52:11;;;;;;;2.83;1.70;;;17.80;65.20;;;;;;4963639;28;20448;-85
2022/11/02 13:54:49;;;;;;;4.00;1.23;;;17.60;65.80;;;;;;4961710;28;20471;-84